createdAt,value
2019-03-16T00:00:54.358Z,6.99
2019-03-16T00:07:02.537Z,7.03
2019-03-16T00:13:15.956Z,7.04
2019-03-16T00:19:26.072Z,6.95
2019-03-16T00:25:34.714Z,7.03
2019-03-16T00:31:42.757Z,7.02
2019-03-16T00:37:54.205Z,7.09
2019-03-16T00:43:58.178Z,7.14
2019-03-16T00:50:04.431Z,7.16
2019-03-16T00:56:09.060Z,7.20
2019-03-16T01:02:26.649Z,7.26
2019-03-16T01:08:25.057Z,7.19
2019-03-16T01:14:34.614Z,7.19
2019-03-16T01:20:46.174Z,7.32
2019-03-16T01:26:52.078Z,7.32
2019-03-16T01:33:00.269Z,7.25
2019-03-16T01:39:26.027Z,7.26
2019-03-16T01:45:34.970Z,7.08
2019-03-16T01:51:47.023Z,7.09
2019-03-16T01:57:58.428Z,7.17
2019-03-16T02:10:27.812Z,6.98
2019-03-16T02:16:37.288Z,6.99
2019-03-16T02:22:49.938Z,6.94
2019-03-16T02:29:02.743Z,6.93
2019-03-16T02:35:11.710Z,6.93
2019-03-16T02:41:20.664Z,6.92
2019-03-16T02:47:45.045Z,6.79
2019-03-16T02:53:55.189Z,6.87
2019-03-16T03:00:06.262Z,6.89
2019-03-16T03:06:24.659Z,6.95
2019-03-16T03:12:39.232Z,6.96
2019-03-16T03:18:52.458Z,6.94
2019-03-16T03:24:57.269Z,6.92
2019-03-16T03:31:12.129Z,6.98
2019-03-16T03:37:20.942Z,6.91
2019-03-16T03:43:25.150Z,6.94
2019-03-16T03:49:32.662Z,6.96
2019-03-16T03:55:39.755Z,6.97
2019-03-16T04:01:44.542Z,6.92
2019-03-16T04:07:49.357Z,6.98
2019-03-16T04:13:54.148Z,6.95
2019-03-16T04:20:03.334Z,7.05
2019-03-16T04:26:14.276Z,6.96
2019-03-16T04:32:28.537Z,7.00
2019-03-16T04:38:29.858Z,6.95
2019-03-16T04:44:34.504Z,6.92
2019-03-16T04:50:39.270Z,6.90
2019-03-16T04:56:46.958Z,7.07
2019-03-16T05:03:00.540Z,7.00
2019-03-16T05:09:12.040Z,7.14
2019-03-16T05:15:34.886Z,6.94
2019-03-16T05:21:40.679Z,7.12
2019-03-16T05:27:48.990Z,7.02
2019-03-16T05:34:01.875Z,7.13
2019-03-16T05:40:16.300Z,7.12
2019-03-16T05:46:32.238Z,7.18
2019-03-16T05:52:43.309Z,7.19
2019-03-16T05:59:13.916Z,6.99
2019-03-16T06:05:24.585Z,6.81
2019-03-16T06:11:41.150Z,6.57
2019-03-16T06:17:46.580Z,6.58
2019-03-16T06:23:52.734Z,6.48
2019-03-16T06:29:59.694Z,6.06
2019-03-16T06:36:05.760Z,5.96
2019-03-16T06:42:10.583Z,6.00
2019-03-16T06:48:18.176Z,5.80
2019-03-16T06:54:23.162Z,5.79
2019-03-16T07:00:29.688Z,5.69
2019-03-16T07:06:36.203Z,5.80
2019-03-16T07:12:48.525Z,5.70
2019-03-16T07:18:59.025Z,5.74
2019-03-16T07:25:07.771Z,5.94
2019-03-16T07:31:14.018Z,5.84
2019-03-16T07:37:24.676Z,5.82
2019-03-16T07:43:29.376Z,5.82
2019-03-16T07:49:38.799Z,6.04
2019-03-16T07:55:44.077Z,6.16
2019-03-16T08:01:48.843Z,6.22
2019-03-16T08:07:54.719Z,6.29
2019-03-16T08:14:03.208Z,6.30
2019-03-16T08:20:09.440Z,6.23
2019-03-16T08:26:14.179Z,6.46
2019-03-16T08:32:20.633Z,6.82
2019-03-16T08:38:25.649Z,6.98
2019-03-16T08:44:31.940Z,6.98
2019-03-16T08:50:46.219Z,7.22
2019-03-16T08:56:55.727Z,7.52
2019-03-16T09:03:03.607Z,7.79
2019-03-16T09:09:10.011Z,8.08
2019-03-16T09:15:18.452Z,8.20
2019-03-16T09:21:29.325Z,8.02
2019-03-16T09:27:32.323Z,8.02
2019-03-16T09:33:41.253Z,7.68
2019-03-16T09:39:47.114Z,7.86
2019-03-16T09:45:53.286Z,8.07
2019-03-16T09:51:58.172Z,8.16
2019-03-16T09:58:03.044Z,8.53
2019-03-16T10:04:10.969Z,8.40
2019-03-16T10:10:18.207Z,8.54
2019-03-16T10:16:22.775Z,8.56
2019-03-16T10:22:29.341Z,8.07
2019-03-16T10:28:43.193Z,8.07
2019-03-16T10:35:05.618Z,8.43
2019-03-16T10:41:09.141Z,8.14
2019-03-16T10:47:23.207Z,8.27
2019-03-16T10:53:35.652Z,8.35
2019-03-16T11:00:08.325Z,8.49
2019-03-16T11:06:01.374Z,8.40
2019-03-16T11:12:09.534Z,8.46
2019-03-16T11:18:19.049Z,8.33
2019-03-16T11:25:40.985Z,8.45
2019-03-16T11:37:20.289Z,8.56
2019-03-16T11:43:24.846Z,8.86
2019-03-16T11:49:29.401Z,8.63
2019-03-16T11:55:33.965Z,8.98
2019-03-16T12:01:38.508Z,9.08
2019-03-16T12:07:43.066Z,9.25
2019-03-16T12:13:47.598Z,9.46
2019-03-16T12:19:52.185Z,9.49
2019-03-16T12:25:56.747Z,9.83
2019-03-16T12:32:01.323Z,9.67
2019-03-16T12:38:06.102Z,9.95
2019-03-16T12:44:10.664Z,10.07
2019-03-16T12:50:15.627Z,9.91
2019-03-16T12:56:20.257Z,10.12
2019-03-16T13:02:24.809Z,10.01
2019-03-16T13:08:29.386Z,10.01
2019-03-16T13:14:33.950Z,10.34
2019-03-16T13:20:38.521Z,10.30
2019-03-16T13:26:43.094Z,10.26
2019-03-16T13:32:47.800Z,10.21
2019-03-16T13:38:52.366Z,10.26
2019-03-16T13:44:56.912Z,10.31
2019-03-16T13:51:01.491Z,10.57
2019-03-16T13:57:06.238Z,10.58
2019-03-16T14:03:10.808Z,10.66
2019-03-16T14:09:15.398Z,10.68
2019-03-16T14:15:19.946Z,10.77
2019-03-16T14:21:24.518Z,10.47
2019-03-16T14:27:29.074Z,10.55
2019-03-16T14:33:33.721Z,10.67
2019-03-16T14:39:38.655Z,10.73
2019-03-16T14:45:43.559Z,10.72
2019-03-16T14:51:48.113Z,10.79
2019-03-16T14:57:52.769Z,10.82
2019-03-16T15:03:57.399Z,10.77
2019-03-16T15:10:06.926Z,10.75
2019-03-16T15:16:11.560Z,10.78
2019-03-16T15:22:16.121Z,10.81
2019-03-16T15:28:20.689Z,10.72
2019-03-16T15:34:25.429Z,10.68
2019-03-16T15:40:29.989Z,10.64
2019-03-16T15:46:34.633Z,10.61
2019-03-16T15:52:39.274Z,10.58
2019-03-16T15:58:43.855Z,10.64
2019-03-16T16:04:48.433Z,10.65
2019-03-16T16:11:00.944Z,10.60
2019-03-16T16:16:59.296Z,10.32
2019-03-16T16:23:03.933Z,10.15
2019-03-16T16:29:08.490Z,10.04
2019-03-16T16:35:17.083Z,9.89
2019-03-16T16:41:21.706Z,9.61
2019-03-16T16:47:26.274Z,9.32
2019-03-16T16:53:30.813Z,9.33
2019-03-16T16:59:35.370Z,9.36
2019-03-16T17:05:43.135Z,9.63
2019-03-16T17:11:46.208Z,9.82
2019-03-16T17:17:50.757Z,9.96
2019-03-16T17:23:55.346Z,10.22
2019-03-16T17:29:59.952Z,10.33
2019-03-16T17:36:04.679Z,10.32
2019-03-16T17:42:09.259Z,10.16
2019-03-16T17:48:13.807Z,10.24
2019-03-16T17:54:18.385Z,10.23
2019-03-16T18:00:22.954Z,10.18
2019-03-16T18:06:27.609Z,10.20
2019-03-16T18:12:32.236Z,10.20
2019-03-16T18:18:36.816Z,10.23
2019-03-16T18:24:41.455Z,10.12
2019-03-16T18:30:46.016Z,10.13
2019-03-16T18:36:50.668Z,10.12
2019-03-16T18:42:55.347Z,10.21
2019-03-16T18:49:00.006Z,10.07
2019-03-16T18:55:06.912Z,10.17
2019-03-16T19:01:11.479Z,10.14
2019-03-16T19:07:16.122Z,10.10
2019-03-16T19:13:20.838Z,10.06
2019-03-16T19:19:25.555Z,10.16
2019-03-16T19:25:30.125Z,10.12
2019-03-16T19:31:34.700Z,10.07
2019-03-16T19:37:39.257Z,10.07
2019-03-16T19:43:43.857Z,10.05
2019-03-16T19:49:48.407Z,10.02
2019-03-16T19:55:52.971Z,10.02
2019-03-16T20:01:57.521Z,10.06
2019-03-16T20:08:02.159Z,9.95
2019-03-16T20:14:06.794Z,9.85
2019-03-16T20:20:14.532Z,10.03
2019-03-16T20:26:19.101Z,9.86
2019-03-16T20:32:23.666Z,9.90
2019-03-16T20:38:28.283Z,9.75
2019-03-16T20:44:32.919Z,9.95
2019-03-16T20:50:37.477Z,9.86
2019-03-16T20:56:42.137Z,9.80
2019-03-16T21:02:47.152Z,9.85
2019-03-16T21:09:02.529Z,9.73
2019-03-16T21:14:58.161Z,9.78
2019-03-16T21:21:02.767Z,9.69
2019-03-16T21:27:07.339Z,9.70
2019-03-16T21:33:11.970Z,9.78
2019-03-16T21:39:17.096Z,9.65
2019-03-16T21:45:21.956Z,9.84
2019-03-16T21:51:26.552Z,9.63
2019-03-16T21:57:31.331Z,9.79
2019-03-16T22:03:41.921Z,9.87
2019-03-16T22:09:42.288Z,9.82
2019-03-16T22:15:46.838Z,9.77
2019-03-16T22:21:51.470Z,9.70
2019-03-16T22:27:56.028Z,9.66
2019-03-16T22:34:00.948Z,9.78
2019-03-16T22:40:11.966Z,9.85
2019-03-16T22:46:16.623Z,9.70
2019-03-16T22:52:21.240Z,9.94
2019-03-16T22:58:25.902Z,9.73
2019-03-16T23:04:30.615Z,9.71
2019-03-16T23:10:35.304Z,9.73
2019-03-16T23:16:39.901Z,9.86
2019-03-16T23:22:44.581Z,9.73
2019-03-16T23:28:49.128Z,9.88
2019-03-16T23:34:53.772Z,9.85
2019-03-16T23:40:58.408Z,9.68
2019-03-16T23:47:03.119Z,9.70
2019-03-16T23:53:07.750Z,9.61
2019-03-16T23:59:12.303Z,9.54
